Time;durP1;ratioP1;P1;durP2;ratioP2;P2;SDS_P1;SDS_P2;PMS_P1;PMS_P2;Temp;Humidity;BMP_temperature;BMP_pressure;BME280_temperature;BME280_humidity;BME280_pressure;Samples;Min_cycle;Max_cycle;Signal;HPM_P1;HPM_P2
2021/11/12 00:04:44;;;;;;;;;46.25;38.00;;;;;18.49;40.97;101900.56;5099960;27;45336;-57
2021/11/12 00:12:40;;;;;;;;;49.25;39.00;;;;;18.46;41.04;101905.00;5099736;27;45309;-57
2021/11/12 00:15:05;;;;;;;;;45.00;37.00;;;;;18.45;40.93;101905.88;5099690;27;45225;-57
2021/11/12 00:17:33;;;;;;;;;43.50;37.00;;;;;18.45;40.70;101897.88;5099385;27;45996;-57
2021/11/12 00:20:00;;;;;;;;;44.50;37.75;;;;;18.44;40.82;101896.13;5099471;27;45160;-57
2021/11/12 00:22:26;;;;;;;;;46.25;37.25;;;;;18.44;41.08;101898.78;5099463;27;45335;-57
2021/11/12 00:24:54;;;;;;;;;46.25;38.00;;;;;18.44;40.92;101905.00;5099667;27;45370;-56
2021/11/12 00:27:21;;;;;;;;;47.25;38.00;;;;;18.43;40.91;101910.31;5099341;27;45622;-57
2021/11/12 00:29:59;;;;;;;;;43.25;35.50;;;;;18.42;41.03;101905.88;5099207;27;45232;-57
2021/11/12 00:35:16;;;;;;;;;40.50;34.50;;;;;18.41;40.75;101897.00;5099509;27;45304;-57
2021/11/12 00:40:33;;;;;;;;;45.75;36.25;;;;;18.38;40.68;101879.22;5099059;27;45296;-56
2021/11/12 00:45:34;;;;;;;;;43.25;35.75;;;;;18.37;40.63;101889.88;5099435;27;45345;-55
2021/11/12 00:48:13;;;;;;;;;45.25;35.25;;;;;18.37;40.93;101888.13;5098921;27;47055;-57
2021/11/12 00:55:42;;;;;;;;;43.75;37.25;;;;;18.34;40.75;101885.44;5099026;27;45460;-58
2021/11/12 00:58:10;;;;;;;;;43.25;33.50;;;;;18.34;40.76;101879.25;5098642;27;46353;-57
2021/11/12 01:00:36;;;;;;;;;39.25;35.00;;;;;18.33;40.77;101878.34;5098814;27;45221;-56
2021/11/12 01:03:02;;;;;;;;;42.50;35.00;;;;;18.33;40.91;101888.09;5098934;27;45222;-56
2021/11/12 01:05:30;;;;;;;;;39.75;33.25;;;;;18.32;40.69;101884.53;5099079;27;45216;-57
2021/11/12 01:07:55;;;;;;;;;39.25;30.50;;;;;18.32;40.66;101887.19;5097997;27;45518;-57
2021/11/12 01:10:21;;;;;;;;;45.25;36.25;;;;;18.31;40.91;101885.44;5098665;27;45442;-57
2021/11/12 01:12:46;;;;;;;;;44.25;36.50;;;;;18.29;40.28;101881.88;5099078;27;45273;-57
2021/11/12 01:15:17;;;;;;;;;36.00;32.00;;;;;18.31;40.57;101877.44;5099128;27;45294;-56
2021/11/12 01:17:44;;;;;;;;;43.00;35.25;;;;;18.30;40.74;101866.81;5098617;27;46214;-55
2021/11/12 01:20:12;;;;;;;;;41.25;34.75;;;;;18.30;40.87;101864.16;5098195;27;45471;-57
2021/11/12 01:22:38;;;;;;;;;38.50;33.00;;;;;18.29;40.68;101857.91;5098831;27;45324;-57
2021/11/12 01:25:06;;;;;;;;;39.00;32.75;;;;;18.28;40.46;101861.44;5098648;27;45334;-56
2021/11/12 01:27:33;;;;;;;;;37.50;33.00;;;;;18.27;40.54;101862.34;5098270;27;46368;-58
2021/11/12 01:30:00;;;;;;;;;40.75;34.50;;;;;18.26;40.54;101866.78;5098504;27;45281;-57
2021/11/12 01:32:26;;;;;;;;;37.25;33.00;;;;;18.27;40.56;101862.34;5098199;27;45293;-58
2021/11/12 01:34:57;;;;;;;;;42.00;30.75;;;;;18.26;40.64;101855.22;5098519;27;45399;-57
2021/11/12 01:37:24;;;;;;;;;39.75;33.00;;;;;18.26;40.76;101858.78;5097903;27;46070;-57
2021/11/12 01:39:53;;;;;;;;;37.75;32.25;;;;;18.25;40.51;101851.69;5098357;27;45404;-57
2021/11/12 01:42:21;;;;;;;;;32.00;30.25;;;;;18.25;40.66;101857.00;5098515;27;45311;-57
2021/11/12 01:44:51;;;;;;;;;34.50;30.25;;;;;18.24;40.63;101846.34;5098712;27;45457;-57
2021/11/12 01:47:23;;;;;;;;;34.25;32.00;;;;;18.23;40.58;101861.44;5098273;27;45466;-56
2021/11/12 01:49:51;;;;;;;;;37.75;33.00;;;;;18.23;40.42;101858.78;5098331;27;45341;-58
2021/11/12 01:52:21;;;;;;;;;34.75;32.00;;;;;18.23;40.36;101860.56;5098153;27;45320;-58
2021/11/12 02:00:16;;;;;;;;;34.50;30.00;;;;;18.20;40.51;101845.47;5054995;28;45447;-57
2021/11/12 02:02:42;;;;;;;;;32.00;31.00;;;;;18.20;40.66;101844.56;5055208;28;45220;-58
2021/11/12 02:05:08;;;;;;;;;36.50;32.50;;;;;18.19;40.59;101837.50;5055638;28;45292;-57
2021/11/12 02:07:36;;;;;;;;;35.75;31.75;;;;;18.19;40.62;101832.16;5055102;28;47055;-57
2021/11/12 02:10:15;;;;;;;;;34.25;32.00;;;;;18.17;40.45;101835.69;5055051;28;45620;-57
2021/11/12 02:15:26;;;;;;;;;39.25;32.00;;;;;18.17;40.61;101824.16;5055469;28;45272;-58
2021/11/12 02:18:13;;;;;;;;;39.25;31.75;;;;;18.15;40.53;101817.91;5054753;28;46590;-57
2021/11/12 02:20:51;;;;;;;;;34.25;31.25;;;;;18.14;40.53;101811.72;5056783;28;45569;-57
2021/11/12 02:23:18;;;;;;;;;40.50;32.25;;;;;18.14;40.42;101814.38;5058491;28;45470;-57
2021/11/12 02:25:44;;;;;;;;;33.50;31.25;;;;;18.14;40.36;101813.47;5058483;28;45418;-57
2021/11/12 02:28:14;;;;;;;;;34.75;30.25;;;;;18.11;40.59;101801.06;5058411;28;46876;-57
2021/11/12 02:30:41;;;;;;;;;35.75;32.25;;;;;18.13;40.31;101806.38;5058233;28;45438;-56
2021/11/12 02:33:08;;;;;;;;;31.50;29.00;;;;;18.12;40.90;101808.16;5075649;27;45284;-57
2021/11/12 02:35:36;;;;;;;;;36.75;30.75;;;;;18.13;40.55;101820.56;5101475;27;45505;-57
2021/11/12 02:38:03;;;;;;;;;26.50;25.75;;;;;18.11;40.58;101814.34;5100806;27;46329;-57
2021/11/12 02:40:31;;;;;;;;;30.00;30.00;;;;;18.10;40.26;101807.28;5101132;27;45539;-57
2021/11/12 02:42:57;;;;;;;;;32.25;28.75;;;;;18.10;40.38;101806.38;5101079;27;45372;-57
2021/11/12 02:45:23;;;;;;;;;40.50;33.00;;;;;18.09;40.53;101800.16;5101304;27;45422;-58
2021/11/12 02:47:48;;;;;;;;;34.25;30.25;;;;;18.09;40.36;101809.91;5100965;27;46114;-58
2021/11/12 02:50:17;;;;;;;;;35.75;32.00;;;;;18.09;40.35;101809.91;5101087;27;45317;-56
2021/11/12 02:52:44;;;;;;;;;34.00;29.25;;;;;18.08;40.53;101811.69;5101036;27;45449;-58
2021/11/12 02:55:09;;;;;;;;;37.50;30.25;;;;;18.08;40.51;101806.38;5101088;27;45498;-57
2021/11/12 02:57:36;;;;;;;;;32.00;28.00;;;;;18.09;40.58;101810.81;5100647;27;46108;-56
2021/11/12 03:00:05;;;;;;;;;35.00;30.25;;;;;18.08;40.40;101805.47;5100765;27;45308;-57
2021/11/12 03:02:32;;;;;;;;;34.25;30.00;;;;;18.07;40.29;101793.94;5100817;27;45240;-58
2021/11/12 03:04:57;;;;;;;;;35.50;30.75;;;;;18.06;40.20;101794.84;5101006;27;45332;-58
2021/11/12 03:07:22;;;;;;;;;32.50;30.00;;;;;18.05;40.59;101806.34;5100369;27;47387;-57
2021/11/12 03:09:48;;;;;;;;;33.75;30.00;;;;;18.04;40.53;101800.13;5100772;27;45264;-57
2021/11/12 03:12:13;;;;;;;;;32.00;30.00;;;;;18.04;40.44;101805.47;5100680;27;45402;-58
2021/11/12 03:14:39;;;;;;;;;33.25;30.00;;;;;18.03;40.66;101795.72;5100938;27;45198;-57
2021/11/12 03:17:05;;;;;;;;;31.25;29.00;;;;;18.03;40.47;101797.47;5100632;27;46019;-58
2021/11/12 03:19:31;;;;;;;;;31.25;29.75;;;;;18.02;40.67;101799.25;5100502;27;45247;-58
2021/11/12 03:22:06;;;;;;;;;34.00;31.75;;;;;18.02;40.30;101798.38;5100506;27;45366;-57
2021/11/12 03:29:49;;;;;;;;;34.25;30.50;;;;;18.00;40.50;101793.03;5100254;27;45329;-58
2021/11/12 04:04:46;;;;;;;;;28.00;26.50;;;;;17.92;40.74;101758.44;5099753;27;45300;-57
2021/11/12 04:20:58;;;;;;;;;31.25;30.00;;;;;17.90;40.54;101741.56;5099150;27;45985;-57
2021/11/12 05:50:16;;;;;;;;;24.33;23.00;;;;;17.74;40.15;101650.25;5075565;28;45381;-56
2021/11/12 05:55:25;;;;;;;;;23.67;20.67;;;;;17.75;40.34;101646.69;5096074;27;45251;-56
2021/11/12 05:57:51;;;;;;;;;22.00;20.33;;;;;17.77;40.32;101650.22;5101492;27;46255;-57
2021/11/12 06:00:18;;;;;;;;;25.00;21.00;;;;;17.79;40.36;101631.59;5101827;27;45356;-57
2021/11/12 06:02:45;;;;;;;;;22.00;21.00;;;;;17.80;40.49;101633.41;5101696;27;45183;-57
2021/11/12 06:05:11;;;;;;;;;23.33;21.00;;;;;17.83;40.58;101638.69;5102037;27;45377;-57
2021/11/12 06:07:36;;;;;;;;;22.33;19.33;;;;;17.84;40.48;101643.16;5101577;27;46048;-57
2021/11/12 06:10:04;;;;;;;;;23.33;19.33;;;;;17.85;40.65;101639.63;5101339;27;45308;-56
2021/11/12 06:12:30;;;;;;;;;19.67;17.67;;;;;17.87;40.77;101645.84;5098961;27;45424;-58
2021/11/12 06:14:55;;;;;;;;;21.00;17.33;;;;;17.89;40.91;101641.41;5101566;27;45218;-59
2021/11/12 06:17:21;;;;;;;;;20.67;20.00;;;;;17.91;41.04;101636.97;5101195;27;46270;-59
2021/11/12 06:19:46;;;;;;;;;17.00;17.00;;;;;17.94;40.89;101630.75;5101477;27;45156;-57
2021/11/12 06:22:12;;;;;;;;;21.33;20.00;;;;;17.96;41.22;101630.78;5100267;27;45621;-58
2021/11/12 06:24:38;;;;;;;;;21.00;19.00;;;;;17.99;41.15;101628.09;5101411;27;45438;-57
2021/11/12 06:27:04;;;;;;;;;21.50;20.00;;;;;18.00;41.28;101629.88;5100947;27;47241;-58
2021/11/12 06:29:30;;;;;;;;;20.33;18.33;;;;;18.01;41.37;101632.53;5101298;27;45281;-57
2021/11/12 06:31:55;;;;;;;;;19.67;18.33;;;;;18.05;41.57;101625.44;5100622;27;45465;-58
2021/11/12 06:34:21;;;;;;;;;21.33;17.67;;;;;18.06;41.67;101628.09;5101496;27;45325;-57
2021/11/12 06:36:47;;;;;;;;;20.00;19.00;;;;;18.09;41.84;101629.88;5100900;27;45381;-58
2021/11/12 06:39:14;;;;;;;;;22.00;19.00;;;;;18.11;41.61;101633.41;5100802;27;45364;-58
2021/11/12 06:49:34;;;;;;;;;17.00;17.00;;;;;18.16;41.31;101644.97;5100642;27;45474;-58
2021/11/12 06:51:59;;;;;;;;;18.33;17.00;;;;;18.19;41.48;101637.91;5100981;27;45340;-58
2021/11/12 06:54:25;;;;;;;;;19.00;17.33;;;;;18.22;41.35;101632.56;5101177;27;45415;-57
2021/11/12 06:56:51;;;;;;;;;20.00;16.00;;;;;18.23;41.44;101621.03;5100605;27;46185;-57
2021/11/12 06:59:16;;;;;;;;;18.33;15.67;;;;;18.23;41.28;101621.91;5100797;27;45438;-58
2021/11/12 07:01:42;;;;;;;;;17.67;16.00;;;;;18.23;41.35;101621.91;5101130;27;45217;-58
2021/11/12 07:04:07;;;;;;;;;20.33;18.67;;;;;18.25;41.37;101629.91;5101256;27;45208;-57
2021/11/12 07:06:36;;;;;;;;;17.00;16.00;;;;;18.25;41.40;101630.78;5099804;27;46146;-57
2021/11/12 07:09:02;;;;;;;;;17.33;16.00;;;;;18.25;41.23;101624.59;5100472;27;45292;-57
2021/11/12 07:11:28;;;;;;;;;20.67;17.67;;;;;18.26;41.46;101632.56;5100938;27;45250;-58
2021/11/12 07:13:53;;;;;;;;;24.33;20.67;;;;;18.26;41.15;101635.22;5100789;27;45265;-58
2021/11/12 07:16:19;;;;;;;;;20.00;18.33;;;;;18.28;41.22;101641.44;5100795;27;45323;-58
2021/11/12 07:18:44;;;;;;;;;23.00;19.00;;;;;18.29;40.79;101637.00;5100569;27;45341;-58
2021/11/12 07:21:10;;;;;;;;;18.33;18.33;;;;;18.30;40.76;101629.91;5100660;27;45290;-58
2021/11/12 07:23:36;;;;;;;;;21.00;20.00;;;;;18.30;40.91;101633.44;5101191;27;45369;-57
2021/11/12 07:26:01;;;;;;;;;21.33;21.00;;;;;18.30;40.74;101632.59;5100372;27;46498;-57
2021/11/12 07:28:27;;;;;;;;;19.33;19.33;;;;;18.30;40.78;101625.47;5100508;27;45160;-57
2021/11/12 07:30:55;;;;;;;;;19.00;18.33;;;;;18.30;40.85;101622.78;5100587;27;45298;-58
2021/11/12 07:33:21;;;;;;;;;16.33;16.00;;;;;18.30;40.58;101619.28;5100530;27;45518;-57
2021/11/12 07:35:54;;;;;;;;;18.00;16.00;;;;;18.30;40.40;101608.63;5100246;27;47073;-58
2021/11/12 07:39:07;;;;;;;;;17.67;17.33;;;;;18.30;40.52;101605.97;5100093;27;45341;-57
2021/11/12 07:47:10;;;;;;;;;18.33;17.00;;;;;18.30;40.90;101609.50;5099884;27;45336;-58
2021/11/12 07:49:28;;;;;;;;;17.33;17.00;;;;;18.31;40.99;101605.06;5096989;27;45155;-57
2021/11/12 07:51:55;;;;;;;;;14.00;14.00;;;;;18.32;40.98;101593.53;5100178;27;45184;-58
2021/11/12 07:54:20;;;;;;;;;13.00;11.33;;;;;18.32;41.16;101593.53;5100299;27;45678;-58
2021/11/12 07:56:46;;;;;;;;;14.67;14.67;;;;;18.32;41.09;101593.53;5099582;27;47067;-58
2021/11/12 07:59:11;;;;;;;;;15.00;13.67;;;;;18.33;41.04;101600.63;5099794;27;45368;-57
2021/11/12 08:01:37;;;;;;;;;16.33;14.33;;;;;18.34;41.20;101603.28;5099586;27;45868;-58
2021/11/12 08:04:04;;;;;;;;;20.00;16.67;;;;;18.35;41.28;101606.84;5099991;27;45261;-57
2021/11/12 08:06:30;;;;;;;;;16.67;14.00;;;;;18.35;41.43;101630.78;5099890;27;46460;-58
2021/11/12 08:09:04;;;;;;;;;14.33;14.33;;;;;18.35;41.47;101639.66;5099636;27;45376;-58
2021/11/12 08:11:48;;;;;;;;;14.33;14.33;;;;;18.37;41.34;101642.31;5099929;27;45313;-58
2021/11/12 08:16:59;;;;;;;;;16.00;14.67;;;;;18.40;41.07;101650.31;5099202;27;45393;-58
2021/11/12 08:19:36;;;;;;;;;19.33;15.33;;;;;18.40;41.06;101645.00;5098769;27;45321;-58
2021/11/12 08:22:09;;;;;;;;;16.67;16.67;;;;;18.42;41.09;101637.00;5099650;27;45226;-58
2021/11/12 08:24:49;;;;;;;;;12.67;12.33;;;;;18.43;41.25;101636.09;5099818;27;45487;-58
2021/11/12 08:42:14;;;;;;;;;17.00;16.00;;;;;18.45;40.77;101636.97;5099299;27;45364;-58
2021/11/12 08:44:54;;;;;;;;;13.67;13.67;;;;;18.45;40.62;101631.66;5098511;27;45483;-57
2021/11/12 08:47:25;;;;;;;;;18.67;15.00;;;;;18.44;40.74;101636.13;5098812;27;46064;-58
2021/11/12 08:49:50;;;;;;;;;17.00;15.33;;;;;18.45;40.35;101636.97;5098861;27;45286;-58
2021/11/12 08:52:18;;;;;;;;;15.00;14.00;;;;;18.43;40.62;101623.69;5099269;27;45344;-58
2021/11/12 08:54:45;;;;;;;;;13.67;13.67;;;;;18.44;40.55;101616.59;5099353;27;45396;-58
2021/11/12 08:57:12;;;;;;;;;18.00;16.67;;;;;18.45;40.20;101618.34;5098697;27;47119;-58
2021/11/12 08:59:40;;;;;;;;;16.33;16.00;;;;;18.45;39.95;101621.00;5098947;27;45365;-57
2021/11/12 09:02:14;;;;;;;;;18.67;16.00;;;;;18.43;40.14;101605.03;5098843;27;45377;-57
2021/11/12 09:04:40;;;;;;;;;18.67;16.33;;;;;18.44;40.22;101613.94;5098884;27;45542;-57
2021/11/12 09:07:05;;;;;;;;;13.33;13.33;;;;;18.44;40.21;101620.16;5098836;27;47164;-58
2021/11/12 09:09:32;;;;;;;;;16.00;14.67;;;;;18.45;40.36;101626.34;5098703;27;45441;-58
2021/11/12 09:11:58;;;;;;;;;13.00;13.00;;;;;18.44;40.20;101624.56;5098969;27;45234;-56
2021/11/12 09:14:26;;;;;;;;;18.00;15.00;;;;;18.44;39.96;101629.91;5098985;27;45477;-57
2021/11/12 09:16:52;;;;;;;;;16.67;16.33;;;;;18.44;40.30;101628.13;5098544;27;46173;-58
2021/11/12 09:19:17;;;;;;;;;19.00;16.33;;;;;18.45;40.41;101631.66;5098579;27;45210;-58
2021/11/12 09:21:45;;;;;;;;;18.00;15.00;;;;;18.44;40.27;101621.91;5098880;27;45168;-58
2021/11/12 09:24:11;;;;;;;;;17.67;15.00;;;;;18.45;40.37;101602.38;5099106;27;45309;-57
2021/11/12 09:26:37;;;;;;;;;16.00;15.00;;;;;18.46;40.54;101609.47;5098419;27;46616;-58
2021/11/12 09:29:05;;;;;;;;;11.67;11.67;;;;;18.46;40.69;101612.16;5098179;27;45452;-57
2021/11/12 09:31:31;;;;;;;;;16.33;14.67;;;;;18.46;40.71;101602.41;5098295;27;45148;-57
2021/11/12 09:33:57;;;;;;;;;13.33;11.33;;;;;18.47;40.83;101597.94;5098579;27;45447;-57
2021/11/12 09:36:24;;;;;;;;;16.33;14.67;;;;;18.47;40.92;101597.94;5098208;27;46280;-58
2021/11/12 09:38:49;;;;;;;;;13.33;13.33;;;;;18.48;40.96;101605.94;5098012;27;45232;-57
2021/11/12 09:41:16;;;;;;;;;17.67;15.67;;;;;18.49;40.82;101606.81;5098352;27;45287;-57
2021/11/12 09:43:42;;;;;;;;;13.33;13.33;;;;;18.49;40.81;101612.13;5098608;27;45354;-56
2021/11/12 09:46:10;;;;;;;;;19.33;18.33;;;;;18.50;40.55;101608.59;5098238;27;45291;-58
2021/11/12 09:48:36;;;;;;;;;16.33;16.33;;;;;18.50;40.96;101603.25;5098405;27;45236;-57
2021/11/12 09:51:03;;;;;;;;;18.67;17.00;;;;;18.51;40.70;101594.38;5098252;27;45199;-57
2021/11/12 09:53:29;;;;;;;;;18.33;17.00;;;;;18.50;40.74;101571.31;5098641;27;45224;-58
2021/11/12 09:55:54;;;;;;;;;17.67;16.67;;;;;18.50;40.77;101564.22;5097861;27;46087;-57
2021/11/12 09:58:20;;;;;;;;;19.00;17.67;;;;;18.51;40.69;101557.09;5097952;27;45554;-57
2021/11/12 10:00:53;;;;;;;;;20.00;17.67;;;;;18.52;40.78;101553.56;5098342;27;45259;-57
2021/11/12 10:03:18;;;;;;;;;18.67;14.67;;;;;18.52;40.88;101546.47;5098447;27;45218;-57
2021/11/12 10:05:46;;;;;;;;;16.00;15.67;;;;;18.52;40.63;101543.81;5097874;27;45229;-57
2021/11/12 10:08:25;;;;;;;;;22.00;16.67;;;;;18.52;40.40;101551.78;5097959;27;45312;-57
2021/11/12 10:10:55;;;;;;;;;14.00;12.33;;;;;18.54;40.43;101556.22;5098167;27;45246;-58
2021/11/12 10:13:32;;;;;;;;;16.00;15.67;;;;;18.54;40.43;101546.47;5098316;27;45441;-58
2021/11/12 10:16:23;;;;;;;;;22.00;18.67;;;;;18.54;40.38;101541.13;5097554;27;46165;-56
2021/11/12 10:19:19;;;;;;;;;18.33;17.33;;;;;18.53;40.31;101555.31;5097826;27;45337;-58
2021/11/12 10:21:46;;;;;;;;;16.67;16.00;;;;;18.54;40.29;101573.09;5075257;28;45603;-57
2021/11/12 10:24:28;;;;;;;;;20.00;18.33;;;;;18.54;40.12;101546.47;5058433;28;45581;-57
2021/11/12 10:27:03;;;;;;;;;19.67;18.67;;;;;18.54;40.27;101545.56;5075129;28;47039;-57
2021/11/12 10:29:35;;;;;;;;;19.67;18.00;;;;;18.54;40.40;101551.78;5075142;28;45322;-57
2021/11/12 10:32:07;;;;;;;;;20.33;17.67;;;;;18.54;39.98;101541.13;5074928;28;45429;-57
2021/11/12 10:34:35;;;;;;;;;17.67;17.00;;;;;18.54;40.12;101529.59;5075243;28;45462;-57
2021/11/12 10:37:05;;;;;;;;;18.33;17.00;;;;;18.52;39.93;101541.16;5074680;28;46295;-57
2021/11/12 10:39:35;;;;;;;;;20.33;18.33;;;;;18.52;39.92;101553.56;5074872;28;45394;-57
2021/11/12 10:42:06;;;;;;;;;20.33;17.00;;;;;18.53;40.01;101560.66;5077375;28;45233;-57
2021/11/12 10:44:39;;;;;;;;;17.33;16.33;;;;;18.53;40.11;101560.66;5078628;28;45326;-57
2021/11/12 10:47:06;;;;;;;;;17.00;15.00;;;;;18.52;39.98;101554.47;5078526;28;47122;-57
2021/11/12 10:49:34;;;;;;;;;19.67;18.33;;;;;18.53;40.02;101536.69;5078235;28;45485;-57
2021/11/12 10:52:14;;;;;;;;;19.00;17.00;;;;;18.51;40.06;101520.72;5078666;28;45430;-57
2021/11/12 10:57:16;;;;;;;;;20.67;18.00;;;;;18.50;40.19;101487.00;5081347;27;45393;-57
2021/11/12 11:00:11;;;;;;;;;20.00;18.67;;;;;18.52;40.40;101485.22;5100598;27;45348;-57
2021/11/12 11:02:41;;;;;;;;;18.00;18.00;;;;;18.54;40.48;101471.91;5078428;28;45456;-56
2021/11/12 11:05:13;;;;;;;;;19.33;17.33;;;;;18.54;40.21;101469.25;5078644;28;46194;-57
2021/11/12 11:07:39;;;;;;;;;21.33;18.00;;;;;18.55;40.43;101478.13;5077907;28;46177;-57
2021/11/12 11:10:17;;;;;;;;;21.00;17.67;;;;;18.55;40.47;101464.81;5077981;28;45386;-57
2021/11/12 11:12:43;;;;;;;;;22.00;20.33;;;;;18.55;40.45;101451.50;5077961;28;45375;-57
2021/11/12 11:15:22;;;;;;;;;22.00;21.00;;;;;18.55;40.25;101462.16;5078611;28;45255;-58
2021/11/12 11:17:50;;;;;;;;;19.00;16.67;;;;;18.56;40.40;101485.22;5077991;28;47206;-57
2021/11/12 11:20:21;;;;;;;;;19.67;17.33;;;;;18.56;40.58;101488.75;5077612;28;45310;-57
2021/11/12 11:22:56;;;;;;;;;19.00;18.00;;;;;18.56;40.53;101480.78;5077849;28;45346;-57
2021/11/12 11:25:27;;;;;;;;;21.67;20.00;;;;;18.57;40.17;101471.03;5077840;28;45445;-57
2021/11/12 11:27:55;;;;;;;;;18.67;18.00;;;;;18.57;40.27;101463.88;5077699;28;46240;-58
2021/11/12 11:30:21;;;;;;;;;20.67;19.67;;;;;18.57;40.37;101460.38;5077701;28;45411;-58
2021/11/12 11:32:46;;;;;;;;;19.00;18.33;;;;;18.57;40.25;101463.03;5077717;28;45284;-58
2021/11/12 11:35:16;;;;;;;;;21.33;19.00;;;;;18.57;40.50;101482.53;5077924;28;45448;-58
2021/11/12 11:37:44;;;;;;;;;23.67;22.00;;;;;18.57;40.14;101490.50;5077480;28;46471;-58
2021/11/12 11:40:14;;;;;;;;;22.00;19.67;;;;;18.57;40.05;101460.38;5099520;27;45250;-58
2021/11/12 11:42:44;;;;;;;;;18.00;17.00;;;;;18.56;40.22;101459.47;5100412;27;45360;-58
2021/11/12 11:45:11;;;;;;;;;21.33;18.67;;;;;18.58;40.32;101467.44;5100334;27;45394;-57
2021/11/12 11:47:40;;;;;;;;;18.33;17.67;;;;;18.57;39.98;101484.34;5099955;27;46191;-58
2021/11/12 11:50:28;;;;;;;;;19.00;18.33;;;;;18.56;40.05;101472.78;5099984;27;45262;-58
2021/11/12 11:52:54;;;;;;;;;21.33;18.00;;;;;18.56;39.88;101474.56;5099887;27;45291;-57
2021/11/12 11:55:34;;;;;;;;;18.67;17.33;;;;;18.56;40.23;101471.91;5100109;27;45144;-57
2021/11/12 11:58:37;;;;;;;;;18.67;15.67;;;;;18.56;40.14;101464.81;5099924;27;46202;-58
2021/11/12 12:01:18;;;;;;;;;20.00;18.33;;;;;18.57;40.17;101452.38;5096100;27;45447;-57
2021/11/12 12:03:45;;;;;;;;;20.00;18.67;;;;;18.56;40.14;101448.81;5100162;27;45279;-57
2021/11/12 12:06:19;;;;;;;;;21.00;18.67;;;;;18.56;40.27;101448.81;5100039;27;45332;-57
2021/11/12 12:08:55;;;;;;;;;21.67;19.00;;;;;18.56;40.39;101443.50;5099469;27;47499;-57
2021/11/12 12:11:23;;;;;;;;;24.00;20.00;;;;;18.56;40.43;101432.84;5099886;27;45336;-57
2021/11/12 12:14:20;;;;;;;;;22.00;20.00;;;;;18.58;40.30;101432.84;5099748;27;45403;-57
2021/11/12 12:17:10;;;;;;;;;24.00;20.00;;;;;18.57;40.50;101421.28;5099815;27;45234;-57
2021/11/12 13:23:15;;;;;;;;;22.00;21.00;;;;;18.65;40.96;101330.72;5098711;27;45350;-57
2021/11/12 13:25:50;;;;;;;;;23.33;20.33;;;;;18.65;40.77;101322.75;5098681;27;45266;-57
2021/11/12 13:28:35;;;;;;;;;23.00;20.00;;;;;18.66;40.96;101327.16;5098387;27;46177;-57
2021/11/12 13:31:08;;;;;;;;;23.00;21.00;;;;;18.66;40.98;101331.59;5098164;27;45321;-57
2021/11/12 13:33:38;;;;;;;;;22.67;20.33;;;;;18.65;40.83;101325.41;5098360;27;45334;-57
2021/11/12 13:36:20;;;;;;;;;23.00;21.00;;;;;18.65;41.06;101314.75;5098653;27;45392;-57
2021/11/12 13:38:58;;;;;;;;;22.33;21.67;;;;;18.65;40.78;101314.75;5098016;27;47067;-57
2021/11/12 13:41:31;;;;;;;;;25.67;21.00;;;;;18.63;40.74;101298.78;5098112;27;45546;-57
2021/11/12 13:44:02;;;;;;;;;20.33;17.67;;;;;18.62;40.97;101301.44;5097127;27;45470;-57
2021/11/12 13:46:28;;;;;;;;;22.33;21.67;;;;;18.65;40.99;101297.88;5097214;27;45253;-57
2021/11/12 13:48:54;;;;;;;;;24.67;21.00;;;;;18.65;40.93;101295.22;5098289;27;47088;-57
2021/11/12 13:51:30;;;;;;;;;19.33;18.00;;;;;18.65;40.69;101297.88;5098330;27;45164;-57
2021/11/12 13:53:57;;;;;;;;;23.33;19.33;;;;;18.65;41.02;101289.91;5098259;27;45384;-57
2021/11/12 13:56:23;;;;;;;;;21.00;18.67;;;;;18.65;41.07;101287.25;5098127;27;45512;-57
2021/11/12 13:59:07;;;;;;;;;18.00;16.67;;;;;18.65;41.23;101284.56;5098023;27;45272;-57
2021/11/12 14:01:33;;;;;;;;;22.33;20.00;;;;;18.65;41.14;101284.56;5097931;27;45323;-57
2021/11/12 14:04:00;;;;;;;;;19.00;16.33;;;;;18.64;41.09;101289.00;5098226;27;45256;-57
2021/11/12 14:06:38;;;;;;;;;18.67;18.33;;;;;18.66;41.32;101286.31;5098280;27;45412;-57
2021/11/12 14:09:04;;;;;;;;;19.00;18.00;;;;;18.66;41.33;101286.31;5097591;27;47089;-58
2021/11/12 14:11:32;;;;;;;;;22.00;19.00;;;;;18.66;41.19;101289.00;5097904;27;45299;-57
2021/11/12 14:14:03;;;;;;;;;21.67;19.67;;;;;18.66;41.35;101281.00;5098084;27;45284;-57
2021/11/12 14:16:55;;;;;;;;;21.33;18.67;;;;;18.66;41.46;101267.69;5101014;27;45255;-57
2021/11/12 14:22:37;;;;;;;;;20.67;19.00;;;;;18.67;41.22;101261.47;5101768;27;45369;-57
2021/11/12 14:25:24;;;;;;;;;21.33;20.67;;;;;18.69;41.20;101267.69;5101624;27;45231;-57
2021/11/12 14:28:37;;;;;;;;;22.67;21.33;;;;;18.68;41.37;101263.22;5101836;27;45474;-57
2021/11/12 14:31:28;;;;;;;;;19.67;18.67;;;;;18.69;41.36;101267.69;5078329;28;46391;-57
2021/11/12 14:34:09;;;;;;;;;23.33;20.33;;;;;18.69;41.46;101265.91;5078648;28;45507;-58
2021/11/12 14:36:40;;;;;;;;;21.33;19.00;;;;;18.70;41.65;101265.00;5063216;28;45291;-54
2021/11/12 14:39:22;;;;;;;;;25.33;22.00;;;;;18.71;41.58;101268.56;5078736;28;45494;-55
2021/11/12 14:44:54;;;;;;;;;18.67;18.67;;;;;18.71;41.54;101266.78;5078443;28;45290;-57
2021/11/12 14:53:16;;;;;;;;;19.67;18.67;;;;;18.72;41.43;101246.34;5078177;28;45407;-57
2021/11/12 14:55:44;;;;;;;;;19.75;18.00;;;;;18.72;41.66;101255.22;5078413;28;45430;-57
2021/11/12 14:58:14;;;;;;;;;22.67;22.33;;;;;18.71;41.52;101247.25;5078328;28;45528;-57
2021/11/12 15:00:40;;;;;;;;;21.00;19.33;;;;;18.73;41.34;101256.09;5078477;28;45516;-57
2021/11/12 15:03:06;;;;;;;;;22.33;20.33;;;;;18.72;41.60;101259.66;5078160;28;46353;-57
2021/11/12 15:05:32;;;;;;;;;19.33;17.33;;;;;18.73;41.60;101270.31;5080987;27;45494;-56
2021/11/12 15:10:46;;;;;;;;;19.33;18.33;;;;;18.73;41.61;101272.09;5078298;28;45579;-57
2021/11/12 15:13:12;;;;;;;;;19.67;18.33;;;;;18.73;41.52;101269.41;5077900;28;46673;-57
2021/11/12 15:15:37;;;;;;;;;27.33;22.00;;;;;18.73;41.67;101264.09;5077856;28;45347;-57
2021/11/12 15:18:05;;;;;;;;;23.00;20.67;;;;;18.73;41.81;101264.09;5078009;28;45878;-57
2021/11/12 15:20:33;;;;;;;;;19.67;19.67;;;;;18.74;41.45;101256.09;5077904;28;45370;-58
2021/11/12 15:30:46;;;;;;;;;22.67;19.67;;;;;18.73;41.65;101264.09;5078054;28;45403;-58
2021/11/12 15:33:16;;;;;;;;;20.00;18.00;;;;;18.73;41.36;101269.41;5077582;28;47361;-58
2021/11/12 15:35:43;;;;;;;;;20.33;20.33;;;;;18.71;41.58;101268.56;5077774;28;45458;-58
2021/11/12 15:38:35;;;;;;;;;18.00;16.33;;;;;18.73;41.61;101269.41;5077644;28;45361;-58
2021/11/12 15:41:09;;;;;;;;;18.67;18.00;;;;;18.73;41.75;101270.31;5077562;28;45496;-58
2021/11/12 15:43:43;;;;;;;;;19.00;19.00;;;;;18.72;41.41;101272.97;5077184;28;46202;-58
2021/11/12 15:46:13;;;;;;;;;15.33;15.33;;;;;18.71;41.58;101266.78;5077550;28;45249;-58
2021/11/12 15:48:41;;;;;;;;;22.33;18.00;;;;;18.71;41.59;101260.56;5097086;27;45231;-57
2021/11/12 15:54:11;;;;;;;;;18.67;18.67;;;;;18.71;41.63;101279.19;5099838;27;45831;-57
2021/11/12 16:02:35;;;;;;;;;19.00;18.00;;;;;18.68;41.37;101272.13;5100008;27;45230;-57
2021/11/12 16:25:35;;;;;;;;;19.67;18.33;;;;;18.67;41.78;101286.34;5099409;27;45361;-57
2021/11/12 16:28:02;;;;;;;;;20.00;17.00;;;;;18.69;41.76;101299.63;5099387;27;45419;-58
2021/11/12 16:30:38;;;;;;;;;21.00;18.00;;;;;18.68;41.84;101293.41;5099539;27;45364;-58
2021/11/12 16:33:05;;;;;;;;;18.67;18.00;;;;;18.71;42.02;101303.16;5099368;27;45473;-58
2021/11/12 16:35:35;;;;;;;;;21.00;19.33;;;;;18.70;41.81;101291.63;5099286;27;46273;-57
2021/11/12 16:38:22;;;;;;;;;21.33;20.00;;;;;18.71;41.88;101292.50;5098372;27;45341;-57
2021/11/12 16:40:58;;;;;;;;;20.33;18.00;;;;;18.72;41.83;101289.84;5099292;27;45332;-58
2021/11/12 16:43:32;;;;;;;;;21.00;17.67;;;;;18.71;41.68;101285.41;5099336;27;45472;-58